createdAt,value
2018-05-05T00:00:31.053Z,57.40
2018-05-05T00:02:58.587Z,57.07
2018-05-05T00:05:26.114Z,57.00
2018-05-05T00:07:53.778Z,57.19
2018-05-05T00:10:21.358Z,56.74
2018-05-05T00:12:51.591Z,56.83
2018-05-05T00:15:19.153Z,56.56
2018-05-05T00:17:47.067Z,56.85
2018-05-05T00:20:14.588Z,56.61
2018-05-05T00:22:42.110Z,56.92
2018-05-05T00:25:09.675Z,56.80
2018-05-05T00:27:37.201Z,56.58
2018-05-05T00:30:04.931Z,56.80
2018-05-05T00:32:32.464Z,56.70
2018-05-05T00:34:59.982Z,56.83
2018-05-05T00:37:27.566Z,56.97
2018-05-05T00:39:55.119Z,57.14
2018-05-05T00:42:22.675Z,57.27
2018-05-05T00:44:50.195Z,57.43
2018-05-05T00:47:17.757Z,57.55
2018-05-05T00:49:45.341Z,57.58
2018-05-05T00:52:12.898Z,57.64
2018-05-05T00:54:49.131Z,57.77
2018-05-05T00:57:16.880Z,57.85
2018-05-05T00:59:44.400Z,58.05
2018-05-05T01:02:11.918Z,58.11
2018-05-05T01:04:39.476Z,58.16
2018-05-05T01:07:06.999Z,58.20
2018-05-05T01:09:34.509Z,58.41
2018-05-05T01:12:02.118Z,58.82
2018-05-05T01:14:29.646Z,58.92
2018-05-05T01:16:57.193Z,59.18
2018-05-05T01:19:24.760Z,59.28
2018-05-05T01:21:52.290Z,59.56
2018-05-05T01:24:19.862Z,59.78
2018-05-05T01:26:47.383Z,60.06
2018-05-05T01:29:14.911Z,60.31
2018-05-05T01:31:42.475Z,60.17
2018-05-05T01:34:10.002Z,60.54
2018-05-05T01:36:37.575Z,60.71
2018-05-05T01:39:05.144Z,60.91
2018-05-05T01:41:32.666Z,61.08
2018-05-05T01:44:00.622Z,61.20
2018-05-05T01:46:28.143Z,61.66
2018-05-05T01:48:55.671Z,61.56
2018-05-05T01:51:23.496Z,61.50
2018-05-05T01:53:51.077Z,61.51
2018-05-05T01:56:18.612Z,61.47
2018-05-05T01:58:46.140Z,61.59
2018-05-05T02:01:13.689Z,61.51
2018-05-05T02:03:41.237Z,61.65
2018-05-05T02:06:08.927Z,61.71
2018-05-05T02:08:36.462Z,61.89
2018-05-05T02:11:03.983Z,61.96
2018-05-05T02:13:31.556Z,61.90
2018-05-05T02:15:59.091Z,62.07
2018-05-05T02:18:26.615Z,62.10
2018-05-05T02:20:54.167Z,62.60
2018-05-05T02:23:21.691Z,62.68
2018-05-05T02:25:49.675Z,62.47
2018-05-05T02:28:17.195Z,62.57
2018-05-05T02:30:44.722Z,62.82
2018-05-05T02:33:12.272Z,63.29
2018-05-05T02:35:39.805Z,62.72
2018-05-05T02:38:07.360Z,62.82
2018-05-05T02:40:35.324Z,62.88
2018-05-05T02:43:02.847Z,62.96
2018-05-05T02:45:30.395Z,63.04
2018-05-05T02:47:57.943Z,63.40
2018-05-05T02:50:25.720Z,63.37
2018-05-05T02:52:53.239Z,63.55
2018-05-05T02:55:20.767Z,63.52
2018-05-05T02:57:48.323Z,63.37
2018-05-05T03:00:15.994Z,63.54
2018-05-05T03:02:43.545Z,63.79
2018-05-05T03:05:11.080Z,64.04
2018-05-05T03:07:38.689Z,64.22
2018-05-05T03:10:06.226Z,64.30
2018-05-05T03:12:33.763Z,64.57
2018-05-05T03:15:01.360Z,64.78
2018-05-05T03:17:29.123Z,64.80
2018-05-05T03:19:56.650Z,64.99
2018-05-05T03:22:24.183Z,65.05
2018-05-05T03:24:51.735Z,65.15
2018-05-05T03:27:19.286Z,65.25
2018-05-05T03:29:46.811Z,65.72
2018-05-05T03:32:14.383Z,65.63
2018-05-05T03:34:41.907Z,65.83
2018-05-05T03:37:09.437Z,66.14
2018-05-05T03:39:36.993Z,66.07
2018-05-05T03:42:04.610Z,66.35
2018-05-05T03:44:32.135Z,66.35
2018-05-05T03:46:59.668Z,66.51
2018-05-05T03:49:27.691Z,66.54
2018-05-05T03:51:55.216Z,66.65
2018-05-05T03:54:22.764Z,66.88
2018-05-05T03:56:50.315Z,67.14
2018-05-05T03:59:29.651Z,67.14
2018-05-05T04:02:09.239Z,67.47
2018-05-05T04:07:32.199Z,67.64
2018-05-05T04:09:59.740Z,67.66
2018-05-05T04:12:27.280Z,68.08
2018-05-05T04:14:54.836Z,68.04
2018-05-05T04:17:22.362Z,68.31
2018-05-05T04:19:49.941Z,68.26
2018-05-05T04:22:17.467Z,68.00
2018-05-05T04:24:45.007Z,68.10
2018-05-05T04:27:12.568Z,67.78
2018-05-05T04:29:40.105Z,67.72
2018-05-05T04:32:07.662Z,67.62
2018-05-05T04:34:35.187Z,67.79
2018-05-05T04:37:02.870Z,68.73
2018-05-05T04:39:30.399Z,67.87
2018-05-05T04:41:57.933Z,67.48
2018-05-05T04:44:25.590Z,67.20
2018-05-05T04:46:53.082Z,67.03
2018-05-05T04:49:20.625Z,66.62
2018-05-05T04:51:48.624Z,66.39
2018-05-05T04:54:16.149Z,66.53
2018-05-05T04:56:43.684Z,65.73
2018-05-05T04:59:11.442Z,65.40
2018-05-05T05:01:38.971Z,65.69
2018-05-05T05:04:06.494Z,65.11
2018-05-05T05:06:34.046Z,64.92
2018-05-05T05:09:01.594Z,63.98
2018-05-05T05:11:29.120Z,63.64
2018-05-05T05:13:56.676Z,63.27
2018-05-05T05:16:24.238Z,63.29
2018-05-05T05:18:51.786Z,62.56
2018-05-05T05:21:19.319Z,62.27
2018-05-05T05:23:47.074Z,61.68
2018-05-05T05:26:14.606Z,61.05
2018-05-05T05:28:42.221Z,59.85
2018-05-05T05:31:09.732Z,57.50
2018-05-05T05:33:37.298Z,56.38
2018-05-05T05:36:04.872Z,53.10
2018-05-05T05:38:32.638Z,52.70
2018-05-05T05:41:00.179Z,50.49
2018-05-05T05:43:27.728Z,51.03
2018-05-05T05:45:55.285Z,53.15
2018-05-05T05:48:22.814Z,51.82
2018-05-05T05:50:50.376Z,51.06
2018-05-05T05:53:17.902Z,50.94
2018-05-05T05:55:45.526Z,52.73
2018-05-05T05:58:13.049Z,50.14
2018-05-05T06:00:40.982Z,51.20
2018-05-05T06:03:08.515Z,49.54
2018-05-05T06:05:36.057Z,49.02
2018-05-05T06:08:03.614Z,47.54
2018-05-05T06:10:31.144Z,50.25
2018-05-05T06:12:58.694Z,47.57
2018-05-05T06:15:26.229Z,47.72
2018-05-05T06:17:53.987Z,46.01
2018-05-05T06:20:21.508Z,45.59
2018-05-05T06:22:49.048Z,47.48
2018-05-05T06:25:16.625Z,45.04
2018-05-05T06:27:44.148Z,47.32
2018-05-05T06:30:11.855Z,44.77
2018-05-05T06:32:39.387Z,46.24
2018-05-05T06:35:06.925Z,47.52
2018-05-05T06:37:34.475Z,45.24
2018-05-05T06:40:02.096Z,46.41
2018-05-05T06:42:29.632Z,46.88
2018-05-05T06:44:57.194Z,47.21
2018-05-05T06:47:24.748Z,47.63
2018-05-05T06:49:52.334Z,47.23
2018-05-05T06:52:19.887Z,48.54
2018-05-05T06:54:47.420Z,49.91
2018-05-05T06:57:15.164Z,49.24
2018-05-05T06:59:42.693Z,50.31
2018-05-05T07:02:10.224Z,51.00
2018-05-05T07:04:37.842Z,51.45
2018-05-05T07:07:05.407Z,51.62
2018-05-05T07:09:32.966Z,50.99
2018-05-05T07:12:00.515Z,51.48
2018-05-05T07:14:28.074Z,51.03
2018-05-05T07:16:55.627Z,50.08
2018-05-05T07:19:23.179Z,51.14
2018-05-05T07:21:50.760Z,50.81
2018-05-05T07:24:18.293Z,50.35
2018-05-05T07:26:45.822Z,50.59
2018-05-05T07:29:13.396Z,49.87
2018-05-05T07:31:40.934Z,49.84
2018-05-05T07:34:08.458Z,49.83
2018-05-05T07:36:36.011Z,49.59
2018-05-05T07:39:03.611Z,49.89
2018-05-05T07:41:31.186Z,49.76
2018-05-05T07:43:58.705Z,49.43
2018-05-05T07:46:26.626Z,49.19
2018-05-05T07:48:54.176Z,47.95
2018-05-05T07:51:21.698Z,49.30
2018-05-05T07:53:49.267Z,49.14
2018-05-05T07:56:16.806Z,49.34
2018-05-05T07:58:44.336Z,48.59
2018-05-05T08:01:11.887Z,47.34
2018-05-05T08:03:39.945Z,48.23
2018-05-05T08:06:07.471Z,48.27
2018-05-05T08:08:35.012Z,49.11
2018-05-05T08:11:02.570Z,49.55
2018-05-05T08:13:30.096Z,50.49
2018-05-05T08:15:58.128Z,49.85
2018-05-05T08:18:25.676Z,49.83
2018-05-05T08:20:53.221Z,49.03
2018-05-05T08:23:20.765Z,48.82
2018-05-05T08:25:48.290Z,47.32
2018-05-05T08:28:15.991Z,46.88
2018-05-05T08:30:43.516Z,47.82
2018-05-05T08:33:11.039Z,47.24
2018-05-05T08:35:38.596Z,46.57
2018-05-05T08:38:06.160Z,46.87
2018-05-05T08:40:33.715Z,46.71
2018-05-05T08:43:01.255Z,46.98
2018-05-05T08:45:28.833Z,47.27
2018-05-05T08:47:56.364Z,46.18
2018-05-05T08:50:24.035Z,45.85
2018-05-05T08:52:51.555Z,46.57
2018-05-05T08:55:19.154Z,45.53
2018-05-05T08:57:46.657Z,44.94
2018-05-05T09:00:14.236Z,45.40
2018-05-05T09:02:41.764Z,45.18
2018-05-05T09:05:09.316Z,44.54
2018-05-05T09:07:36.875Z,43.88
2018-05-05T09:10:04.428Z,42.56
2018-05-05T09:12:31.985Z,40.14
2018-05-05T09:14:59.678Z,40.07
2018-05-05T09:17:27.203Z,39.22
2018-05-05T09:19:54.727Z,39.36
2018-05-05T09:22:22.806Z,39.90
2018-05-05T09:24:50.340Z,41.08
2018-05-05T09:27:17.867Z,38.65
2018-05-05T09:29:45.424Z,39.26
2018-05-05T09:32:12.963Z,39.27
2018-05-05T09:34:40.527Z,39.66
2018-05-05T09:37:08.107Z,39.73
2018-05-05T09:39:35.645Z,39.57
2018-05-05T09:42:03.172Z,39.57
2018-05-05T09:44:30.717Z,39.27
2018-05-05T09:46:58.243Z,39.04
2018-05-05T09:49:25.797Z,38.71
2018-05-05T09:51:53.320Z,36.45
2018-05-05T09:54:20.884Z,36.09
2018-05-05T09:56:48.423Z,35.42
2018-05-05T09:59:15.995Z,36.64
2018-05-05T10:01:43.526Z,36.37
2018-05-05T10:04:11.056Z,36.41
2018-05-05T10:06:38.618Z,37.18
2018-05-05T10:09:06.158Z,37.36
2018-05-05T10:11:33.713Z,37.37
2018-05-05T10:14:01.248Z,37.95
2018-05-05T10:16:28.835Z,37.05
2018-05-05T10:18:56.404Z,36.58
2018-05-05T10:21:23.934Z,37.71
2018-05-05T10:23:51.990Z,37.59
2018-05-05T10:26:20.408Z,36.36
2018-05-05T10:28:47.935Z,36.84
2018-05-05T10:31:15.571Z,36.45
2018-05-05T10:33:43.104Z,36.82
2018-05-05T10:36:11.023Z,36.21
2018-05-05T10:38:38.573Z,36.22
2018-05-05T10:41:06.104Z,35.83
2018-05-05T10:43:33.844Z,35.64
2018-05-05T10:46:01.404Z,34.69
2018-05-05T10:48:28.932Z,34.95
2018-05-05T10:50:56.486Z,34.92
2018-05-05T10:53:24.042Z,35.58
2018-05-05T10:55:51.578Z,37.20
2018-05-05T10:58:19.188Z,36.27
2018-05-05T11:00:46.690Z,35.79
2018-05-05T11:03:14.422Z,35.75
2018-05-05T11:05:41.945Z,35.70
2018-05-05T11:08:09.471Z,36.65
2018-05-05T11:10:37.022Z,35.75
2018-05-05T11:13:04.584Z,35.75
2018-05-05T11:15:32.142Z,36.39
2018-05-05T11:17:59.734Z,36.93
2018-05-05T11:20:27.264Z,35.80
2018-05-05T11:22:54.823Z,36.39
2018-05-05T11:25:22.395Z,36.72
2018-05-05T11:27:49.965Z,36.72
2018-05-05T11:30:17.506Z,36.67
2018-05-05T11:32:45.062Z,35.94
2018-05-05T11:35:12.597Z,36.36
2018-05-05T11:37:40.202Z,35.52
2018-05-05T11:40:07.726Z,36.56
2018-05-05T11:42:35.285Z,36.58
2018-05-05T11:45:02.985Z,36.23
2018-05-05T11:47:30.525Z,36.14
2018-05-05T11:49:58.052Z,35.93
2018-05-05T11:52:25.645Z,35.42
2018-05-05T11:54:53.199Z,37.88
2018-05-05T11:57:20.791Z,36.26
2018-05-05T11:59:48.328Z,36.30
2018-05-05T12:02:15.934Z,35.26
2018-05-05T12:04:43.656Z,35.69
2018-05-05T12:07:11.179Z,35.86
2018-05-05T12:09:38.706Z,35.17
2018-05-05T12:12:06.375Z,35.72
2018-05-05T12:14:33.939Z,35.73
2018-05-05T12:17:01.525Z,34.38
2018-05-05T12:19:29.096Z,34.36
2018-05-05T12:21:56.670Z,35.22
2018-05-05T12:24:24.342Z,35.72
2018-05-05T12:26:51.874Z,35.17
2018-05-05T12:29:19.403Z,35.75
2018-05-05T12:31:46.999Z,35.54
2018-05-05T12:34:14.532Z,35.54
2018-05-05T12:36:42.058Z,35.47
2018-05-05T12:39:09.616Z,35.14
2018-05-05T12:41:37.193Z,35.72
2018-05-05T12:44:04.766Z,34.31
2018-05-05T12:46:32.296Z,34.78
2018-05-05T12:48:59.827Z,34.36
2018-05-05T12:51:27.765Z,34.27
2018-05-05T12:53:55.287Z,36.62
2018-05-05T12:56:22.806Z,34.56
2018-05-05T12:58:50.363Z,34.69
2018-05-05T13:01:18.247Z,35.00
2018-05-05T13:03:45.767Z,34.86
2018-05-05T13:06:13.287Z,35.16
2018-05-05T13:08:40.841Z,34.54
2018-05-05T13:11:08.372Z,34.28
2018-05-05T13:13:35.925Z,35.11
2018-05-05T13:16:03.452Z,34.46
2018-05-05T13:18:31.417Z,33.89
2018-05-05T13:20:58.943Z,34.33
2018-05-05T13:23:26.468Z,34.39
2018-05-05T13:25:54.597Z,34.25
2018-05-05T13:28:22.119Z,34.35
2018-05-05T13:30:49.655Z,33.59
2018-05-05T13:33:17.217Z,33.38
2018-05-05T13:35:44.744Z,33.24
2018-05-05T13:38:12.320Z,33.80
2018-05-05T13:40:39.843Z,33.05
2018-05-05T13:43:07.377Z,33.30
2018-05-05T13:45:34.940Z,33.89
2018-05-05T13:48:02.477Z,33.86
2018-05-05T13:50:30.073Z,34.35
2018-05-05T13:52:57.602Z,34.00
2018-05-05T13:55:25.126Z,32.96
2018-05-05T13:57:52.703Z,33.51
2018-05-05T14:00:20.248Z,33.41
2018-05-05T14:02:47.767Z,32.85
2018-05-05T14:05:15.320Z,31.98
2018-05-05T14:07:42.847Z,32.76
2018-05-05T14:10:10.428Z,33.41
2018-05-05T14:12:37.947Z,32.47
2018-05-05T14:15:05.497Z,32.65
2018-05-05T14:17:33.535Z,32.13
2018-05-05T14:20:01.063Z,32.53
2018-05-05T14:22:28.596Z,32.41
2018-05-05T14:24:56.150Z,32.63
2018-05-05T14:27:23.717Z,32.10
2018-05-05T14:29:51.272Z,32.61
2018-05-05T14:32:18.795Z,32.27
2018-05-05T14:34:46.548Z,32.02
2018-05-05T14:37:14.062Z,31.35
2018-05-05T14:39:41.596Z,31.96
2018-05-05T14:42:09.142Z,32.28
2018-05-05T14:44:36.693Z,32.53
2018-05-05T14:47:04.227Z,33.05
2018-05-05T14:49:32.197Z,33.36
2018-05-05T14:51:59.720Z,32.04
2018-05-05T14:54:27.238Z,32.06
2018-05-05T14:56:54.826Z,33.13
2018-05-05T14:59:22.346Z,32.13
2018-05-05T15:01:49.899Z,33.02
2018-05-05T15:04:17.420Z,33.13
2018-05-05T15:06:44.980Z,33.20
2018-05-05T15:09:12.533Z,31.96
2018-05-05T15:11:40.247Z,33.18
2018-05-05T15:14:07.785Z,32.73
2018-05-05T15:16:35.307Z,33.39
2018-05-05T15:19:03.072Z,32.64
2018-05-05T15:21:30.589Z,32.93
2018-05-05T15:23:58.184Z,32.23
2018-05-05T15:26:25.897Z,33.77
2018-05-05T15:28:53.416Z,33.10
2018-05-05T15:31:20.943Z,32.78
2018-05-05T15:33:48.485Z,32.67
2018-05-05T15:36:16.166Z,33.11
2018-05-05T15:38:43.861Z,32.94
2018-05-05T15:41:11.393Z,32.99
2018-05-05T15:43:38.930Z,33.77
2018-05-05T15:46:06.493Z,32.49
2018-05-05T15:48:34.051Z,32.99
2018-05-05T15:51:01.632Z,33.30
2018-05-05T15:53:29.150Z,32.95
2018-05-05T15:55:56.803Z,32.85
2018-05-05T15:58:24.328Z,33.15
2018-05-05T16:00:51.857Z,33.66
2018-05-05T16:03:19.508Z,33.12
2018-05-05T16:05:47.063Z,33.32
2018-05-05T16:08:14.739Z,32.97
2018-05-05T16:10:42.288Z,33.35
2018-05-05T16:13:09.810Z,33.33
2018-05-05T16:15:37.563Z,33.24
2018-05-05T16:18:05.109Z,33.18
2018-05-05T16:20:32.631Z,33.12
2018-05-05T16:23:00.194Z,33.44
2018-05-05T16:25:27.765Z,32.86
2018-05-05T16:27:55.313Z,33.65
2018-05-05T16:30:22.843Z,33.47
2018-05-05T16:32:50.431Z,32.96
2018-05-05T16:35:17.960Z,33.37
2018-05-05T16:37:45.494Z,33.02
2018-05-05T16:40:13.048Z,33.21
2018-05-05T16:42:40.597Z,33.30
2018-05-05T16:45:08.125Z,33.47
2018-05-05T16:47:36.195Z,33.25
2018-05-05T16:50:03.707Z,33.84
2018-05-05T16:52:31.254Z,33.89
2018-05-05T16:54:58.946Z,33.42
2018-05-05T16:57:26.465Z,33.71
2018-05-05T16:59:53.999Z,34.00
2018-05-05T17:02:21.539Z,33.81
2018-05-05T17:04:49.839Z,33.41
2018-05-05T17:07:17.366Z,33.49
2018-05-05T17:09:44.891Z,33.88
2018-05-05T17:12:12.432Z,33.22
2018-05-05T17:14:39.999Z,33.48
2018-05-05T17:17:07.528Z,33.55
2018-05-05T17:19:35.047Z,33.51
2018-05-05T17:22:02.961Z,33.70
2018-05-05T17:24:32.488Z,33.69
2018-05-05T17:27:00.140Z,33.87
2018-05-05T17:29:27.681Z,33.78
2018-05-05T17:31:55.224Z,33.66
2018-05-05T17:34:22.761Z,33.69
2018-05-05T17:36:50.300Z,33.56
2018-05-05T17:39:17.823Z,33.97
2018-05-05T17:41:45.421Z,34.07
2018-05-05T17:44:12.974Z,34.09
2018-05-05T17:46:40.499Z,34.42
2018-05-05T17:49:08.051Z,34.47
2018-05-05T17:51:35.596Z,34.53
2018-05-05T17:54:03.178Z,34.72
2018-05-05T17:56:30.698Z,34.70
2018-05-05T17:58:58.259Z,34.89
2018-05-05T18:01:25.782Z,35.40
2018-05-05T18:03:53.335Z,35.56
2018-05-05T18:06:20.868Z,35.50
2018-05-05T18:08:48.595Z,34.23
2018-05-05T18:11:16.185Z,32.96
2018-05-05T18:13:43.679Z,33.37
2018-05-05T18:16:11.910Z,34.83
2018-05-05T18:18:39.451Z,33.83
2018-05-05T18:21:07.067Z,33.83
2018-05-05T18:23:34.737Z,34.93
2018-05-05T18:26:02.372Z,34.64
2018-05-05T18:28:29.927Z,36.31
2018-05-05T18:30:57.473Z,35.65
2018-05-05T18:33:25.005Z,35.55
2018-05-05T18:35:52.675Z,36.18
2018-05-05T18:38:20.216Z,36.95
2018-05-05T18:40:47.968Z,37.04
2018-05-05T18:43:15.566Z,37.71
2018-05-05T18:45:43.071Z,37.38
2018-05-05T18:48:10.735Z,37.90
2018-05-05T18:50:38.495Z,37.38
2018-05-05T18:53:06.048Z,38.18
2018-05-05T18:55:33.625Z,37.51
2018-05-05T18:58:01.160Z,38.07
2018-05-05T19:00:28.709Z,38.25
2018-05-05T19:02:56.398Z,38.42
2018-05-05T19:05:23.953Z,38.65
2018-05-05T19:07:51.477Z,39.14
2018-05-05T19:10:19.040Z,38.60
2018-05-05T19:12:46.610Z,38.52
2018-05-05T19:15:14.195Z,38.75
2018-05-05T19:17:41.720Z,39.35
2018-05-05T19:20:09.676Z,39.34
2018-05-05T19:22:37.200Z,39.85
2018-05-05T19:25:04.723Z,39.93
2018-05-05T19:27:32.495Z,39.60
2018-05-05T19:30:00.026Z,39.82
2018-05-05T19:32:27.575Z,40.16
2018-05-05T19:34:55.142Z,40.80
2018-05-05T19:37:22.889Z,40.94
2018-05-05T19:39:50.417Z,41.00
2018-05-05T19:42:17.959Z,41.12
2018-05-05T19:44:45.524Z,41.45
2018-05-05T19:47:13.066Z,41.39
2018-05-05T19:49:40.739Z,41.08
2018-05-05T19:52:08.270Z,41.05
2018-05-05T19:54:35.803Z,41.66
2018-05-05T19:57:03.355Z,42.19
2018-05-05T19:59:31.242Z,42.26
2018-05-05T20:01:58.780Z,42.86
2018-05-05T20:04:26.344Z,43.30
2018-05-05T20:06:54.376Z,43.28
2018-05-05T20:09:21.904Z,42.83
2018-05-05T20:11:49.465Z,42.42
2018-05-05T20:14:17.057Z,42.70
2018-05-05T20:16:44.582Z,43.15
2018-05-05T20:19:12.125Z,43.48
2018-05-05T20:21:39.671Z,43.78
2018-05-05T20:24:07.271Z,44.83
2018-05-05T20:26:34.828Z,44.89
2018-05-05T20:29:02.634Z,44.16
2018-05-05T20:31:30.169Z,43.73
2018-05-05T20:33:57.697Z,43.67
2018-05-05T20:36:25.251Z,43.78
2018-05-05T20:38:52.775Z,43.93
2018-05-05T20:41:20.328Z,43.45
2018-05-05T20:43:47.854Z,43.23
2018-05-05T20:46:15.377Z,42.93
2018-05-05T20:48:42.936Z,42.83
2018-05-05T20:51:10.473Z,43.04
2018-05-05T20:53:38.162Z,43.47
2018-05-05T20:56:05.683Z,42.82
2018-05-05T20:58:33.207Z,42.99
2018-05-05T21:01:00.761Z,43.39
2018-05-05T21:03:28.295Z,42.47
2018-05-05T21:05:56.230Z,42.48
2018-05-05T21:08:23.766Z,44.66
2018-05-05T21:10:51.291Z,43.78
2018-05-05T21:13:19.244Z,44.63
2018-05-05T21:15:46.777Z,44.66
2018-05-05T21:18:14.301Z,45.23
2018-05-05T21:20:41.865Z,43.92
2018-05-05T21:23:09.560Z,43.20
2018-05-05T21:25:37.088Z,43.64
2018-05-05T21:28:04.644Z,43.50
2018-05-05T21:30:32.595Z,43.72
2018-05-05T21:33:00.136Z,43.74
2018-05-05T21:35:27.663Z,43.39
2018-05-05T21:37:55.255Z,43.06
2018-05-05T21:40:22.816Z,43.24
2018-05-05T21:42:50.336Z,43.90
2018-05-05T21:45:18.324Z,44.06
2018-05-05T21:47:45.850Z,44.45
2018-05-05T21:50:13.378Z,43.79
2018-05-05T21:52:40.968Z,43.78
2018-05-05T21:55:08.563Z,43.73
2018-05-05T21:57:36.087Z,43.66
2018-05-05T22:00:03.649Z,43.51
2018-05-05T22:02:31.199Z,44.41
2018-05-05T22:04:58.723Z,43.92
2018-05-05T22:07:26.315Z,43.92
2018-05-05T22:09:53.838Z,43.98
2018-05-05T22:12:21.354Z,43.84
2018-05-05T22:14:48.906Z,43.71
2018-05-05T22:17:16.436Z,43.65
2018-05-05T22:19:44.036Z,43.78
2018-05-05T22:22:11.564Z,43.89
2018-05-05T22:24:39.095Z,43.95
2018-05-05T22:27:06.664Z,43.87
2018-05-05T22:29:34.184Z,43.74
2018-05-05T22:32:01.774Z,43.67
2018-05-05T22:34:29.371Z,43.98
2018-05-05T22:36:56.891Z,44.06
2018-05-05T22:39:24.418Z,44.20
2018-05-05T22:41:51.970Z,44.16
2018-05-05T22:44:19.504Z,44.06
2018-05-05T22:46:47.051Z,44.00
2018-05-05T22:49:14.967Z,44.05
2018-05-05T22:51:42.525Z,44.03
2018-05-05T22:54:10.054Z,44.16
2018-05-05T22:56:37.611Z,44.12
2018-05-05T22:59:05.155Z,44.17
2018-05-05T23:01:32.692Z,44.36
2018-05-05T23:04:00.239Z,44.58
2018-05-05T23:06:27.768Z,44.73
2018-05-05T23:08:55.334Z,44.86
2018-05-05T23:11:22.864Z,44.92
2018-05-05T23:13:50.387Z,45.12
2018-05-05T23:16:17.944Z,45.32
2018-05-05T23:18:45.491Z,45.35
2018-05-05T23:21:13.015Z,45.32
2018-05-05T23:23:40.598Z,45.37
2018-05-05T23:26:08.615Z,45.39
2018-05-05T23:28:36.129Z,45.39
2018-05-05T23:31:03.685Z,45.57
2018-05-05T23:33:31.237Z,45.46
2018-05-05T23:35:58.763Z,45.71
2018-05-05T23:38:26.315Z,45.54
2018-05-05T23:40:54.315Z,44.84
2018-05-05T23:43:21.848Z,44.76
2018-05-05T23:45:49.370Z,44.57
2018-05-05T23:48:17.291Z,44.68
2018-05-05T23:50:44.810Z,44.58
2018-05-05T23:53:12.348Z,45.26
2018-05-05T23:55:39.901Z,44.45
2018-05-05T23:58:07.419Z,44.75
